Time;durP1;ratioP1;P1;durP2;ratioP2;P2;SDS_P1;SDS_P2;PMS_P1;PMS_P2;Temp;Humidity;BMP_temperature;BMP_pressure;BME280_temperature;BME280_humidity;BME280_pressure;Samples;Min_cycle;Max_cycle;Signal;HPM_P1;HPM_P2
2022/03/10 00:00:11;;;;;;;29.37;11.87;;;0.60;99.90;;;;;;4984591;28;20415;-81
2022/03/10 00:02:37;;;;;;;25.37;11.67;;;-0.90;99.90;;;;;;4984432;28;20227;-81
2022/03/10 00:05:04;;;;;;;22.40;10.93;;;-0.90;99.90;;;;;;4984532;28;20439;-81
2022/03/10 00:07:29;;;;;;;24.07;10.80;;;-0.90;99.90;;;;;;4984151;28;20518;-81
2022/03/10 00:09:55;;;;;;;21.03;10.93;;;-0.90;99.90;;;;;;4984451;28;20443;-81
2022/03/10 00:12:21;;;;;;;23.17;13.10;;;-0.90;99.90;;;;;;4984618;28;20645;-81
2022/03/10 00:14:48;;;;;;;20.33;11.17;;;-0.70;99.90;;;;;;4985160;28;20238;-82
2022/03/10 00:17:14;;;;;;;26.73;11.70;;;-0.50;99.90;;;;;;4984585;28;20520;-80
2022/03/10 00:19:39;;;;;;;26.50;13.10;;;-1.00;99.90;;;;;;4985204;28;20431;-81
2022/03/10 00:22:06;;;;;;;25.20;13.00;;;-1.10;99.90;;;;;;4985783;28;20200;-81
2022/03/10 00:24:32;;;;;;;21.30;11.13;;;-1.10;99.90;;;;;;4983862;28;20283;-81
2022/03/10 00:26:58;;;;;;;21.67;11.27;;;-1.20;99.90;;;;;;4985355;28;20481;-82
2022/03/10 00:29:23;;;;;;;23.33;12.53;;;-1.20;99.90;;;;;;4985088;28;20328;-82
2022/03/10 00:31:49;;;;;;;27.67;12.23;;;-1.30;99.90;;;;;;4985450;28;20280;-81
2022/03/10 00:34:14;;;;;;;21.70;11.60;;;-1.30;99.90;;;;;;4984855;28;20216;-81
2022/03/10 00:36:40;;;;;;;22.13;11.03;;;-0.70;99.90;;;;;;4984907;28;20267;-81
2022/03/10 00:39:06;;;;;;;23.97;11.37;;;-1.40;99.90;;;;;;4984631;28;20187;-82
2022/03/10 00:41:31;;;;;;;20.80;10.13;;;-1.40;99.90;;;;;;4981151;28;20565;-81
2022/03/10 00:43:57;;;;;;;20.53;10.27;;;-1.40;99.90;;;;;;4982775;28;20634;-82
2022/03/10 00:46:23;;;;;;;22.80;11.47;;;-0.70;99.90;;;;;;4981855;28;20183;-81
2022/03/10 00:48:48;;;;;;;21.63;11.10;;;-1.50;99.90;;;;;;4983742;28;20666;-81
2022/03/10 00:51:14;;;;;;;21.37;10.87;;;-1.50;99.90;;;;;;4983197;28;20181;-81
2022/03/10 00:53:40;;;;;;;19.13;10.10;;;-1.50;99.90;;;;;;4981831;28;20548;-83
2022/03/10 00:56:06;;;;;;;22.90;11.53;;;-1.50;99.90;;;;;;4983007;28;20200;-81
2022/03/10 00:58:32;;;;;;;17.30;10.20;;;-1.60;99.90;;;;;;4982714;28;20420;-81
2022/03/10 01:00:57;;;;;;;21.70;11.20;;;-1.60;99.90;;;;;;4982331;28;20176;-81
2022/03/10 01:03:23;;;;;;;19.33;10.83;;;-0.70;99.90;;;;;;4981750;28;20212;-81
2022/03/10 01:05:49;;;;;;;23.10;11.13;;;-1.60;99.90;;;;;;4981044;28;20200;-82
2022/03/10 01:08:15;;;;;;;19.87;11.07;;;-1.60;99.90;;;;;;4981576;28;20180;-81
2022/03/10 01:10:41;;;;;;;21.90;11.77;;;-1.50;99.90;;;;;;4982937;28;20251;-81
2022/03/10 01:13:15;;;;;;;23.13;10.57;;;-1.50;99.90;;;;;;4981417;28;20467;-81
2022/03/10 01:15:41;;;;;;;24.43;10.83;;;-0.80;99.90;;;;;;4981275;28;20211;-81
2022/03/10 01:18:08;;;;;;;22.03;10.57;;;-1.60;99.90;;;;;;4982431;28;20913;-81
2022/03/10 01:20:34;;;;;;;18.87;9.80;;;-1.60;99.90;;;;;;4988775;28;20419;-80
2022/03/10 01:22:59;;;;;;;20.20;11.13;;;-1.60;99.90;;;;;;4996383;28;20474;-80
2022/03/10 01:25:25;;;;;;;19.20;11.20;;;-1.50;99.90;;;;;;4997162;28;20287;-81
2022/03/10 01:27:51;;;;;;;21.40;10.87;;;-0.50;99.90;;;;;;4982353;28;20185;-81
2022/03/10 01:30:17;;;;;;;19.07;10.97;;;-1.60;99.90;;;;;;4981984;28;20187;-82
2022/03/10 01:32:44;;;;;;;22.77;12.17;;;-1.50;99.90;;;;;;4980767;28;20183;-81
2022/03/10 01:35:10;;;;;;;22.60;10.90;;;-1.50;99.90;;;;;;4981779;28;20867;-82
2022/03/10 01:37:39;;;;;;;23.03;11.67;;;-1.50;99.90;;;;;;4981254;28;20522;-81
2022/03/10 01:40:07;;;;;;;23.63;10.93;;;-1.50;99.90;;;;;;4982489;28;20444;-81
2022/03/10 01:42:33;;;;;;;20.93;9.77;;;-1.50;99.90;;;;;;4980687;28;20464;-81
2022/03/10 01:44:58;;;;;;;20.67;10.20;;;-1.10;99.90;;;;;;4981876;28;20656;-82
2022/03/10 01:47:25;;;;;;;20.27;10.33;;;-0.30;99.90;;;;;;4982045;28;20187;-81
2022/03/10 01:49:50;;;;;;;20.27;10.40;;;-0.70;99.90;;;;;;4981312;28;20176;-81
2022/03/10 01:52:19;;;;;;;20.80;10.47;;;-1.30;99.90;;;;;;4981728;28;20422;-81
2022/03/10 01:54:44;;;;;;;20.60;9.77;;;-1.20;99.90;;;;;;4980374;28;20651;-81
2022/03/10 01:57:11;;;;;;;19.97;9.37;;;-1.20;99.90;;;;;;4981523;28;20420;-81
2022/03/10 01:59:38;;;;;;;17.33;8.73;;;-1.30;99.90;;;;;;4980141;28;20223;-81
2022/03/10 02:02:05;;;;;;;19.87;10.23;;;-1.30;99.90;;;;;;4980980;28;20513;-81
2022/03/10 02:04:31;;;;;;;17.20;8.17;;;-1.40;99.90;;;;;;4979881;28;20447;-81
2022/03/10 02:06:57;;;;;;;20.77;10.30;;;-1.50;99.90;;;;;;4980515;28;20419;-81
2022/03/10 02:12:08;;;;;;;21.67;9.77;;;-1.70;99.90;;;;;;4981127;28;20457;-81
2022/03/10 02:17:21;;;;;;;18.73;10.30;;;-1.80;99.90;;;;;;4981868;28;20641;-82
2022/03/10 02:19:51;;;;;;;18.93;10.20;;;-1.80;99.90;;;;;;4980115;28;20427;-81
2022/03/10 02:22:18;;;;;;;20.80;10.60;;;-1.80;99.90;;;;;;4979226;28;20462;-81
2022/03/10 02:24:44;;;;;;;19.33;10.20;;;-1.70;99.90;;;;;;4978336;28;20439;-81
2022/03/10 02:27:24;;;;;;;21.13;10.03;;;-1.70;99.90;;;;;;4978487;28;20416;-81
2022/03/10 02:29:51;;;;;;;22.60;10.53;;;-1.80;99.90;;;;;;4993183;28;20447;-82
2022/03/10 02:32:19;;;;;;;20.53;9.80;;;-1.80;99.90;;;;;;4999852;28;20408;-82
2022/03/10 02:34:45;;;;;;;21.23;10.43;;;-1.90;99.90;;;;;;4991045;28;20452;-81
2022/03/10 02:37:11;;;;;;;20.90;9.77;;;-1.90;99.90;;;;;;4981039;28;20415;-81
2022/03/10 02:39:38;;;;;;;20.00;9.50;;;-2.00;99.90;;;;;;4981080;28;20420;-81
2022/03/10 02:42:05;;;;;;;18.70;9.57;;;-2.00;99.90;;;;;;4980851;28;20467;-80
2022/03/10 02:44:31;;;;;;;18.47;9.50;;;-2.00;99.90;;;;;;4991114;28;20499;-81
2022/03/10 02:46:57;;;;;;;19.60;9.43;;;-2.10;99.90;;;;;;4978474;28;20447;-81
2022/03/10 02:49:23;;;;;;;17.03;8.93;;;-2.00;99.90;;;;;;4981288;28;20541;-81
2022/03/10 02:51:49;;;;;;;24.00;9.90;;;-2.00;99.90;;;;;;4985384;28;20180;-81
2022/03/10 02:54:15;;;;;;;19.93;9.70;;;-2.00;99.90;;;;;;4978641;28;21113;-81
2022/03/10 02:56:40;;;;;;;19.70;9.73;;;-2.00;99.90;;;;;;4979454;28;20437;-80
2022/03/10 02:59:06;;;;;;;18.60;9.23;;;-2.00;99.90;;;;;;4988611;28;20180;-80
2022/03/10 03:01:32;;;;;;;19.23;9.60;;;-1.30;99.90;;;;;;4994279;28;20176;-80
2022/03/10 03:03:58;;;;;;;20.33;10.30;;;-1.90;99.90;;;;;;4993326;28;20251;-80
2022/03/10 03:06:24;;;;;;;18.93;8.97;;;-1.90;99.90;;;;;;4978042;28;20195;-80
2022/03/10 03:08:49;;;;;;;18.10;9.07;;;-1.80;99.90;;;;;;4979230;28;20187;-81
2022/03/10 03:11:15;;;;;;;20.70;9.70;;;-1.90;99.90;;;;;;4977733;28;20187;-81
2022/03/10 03:13:41;;;;;;;22.73;9.37;;;-1.90;99.90;;;;;;4977225;28;20550;-81
2022/03/10 03:16:07;;;;;;;17.87;10.00;;;-2.00;99.90;;;;;;4977804;28;20439;-81
2022/03/10 03:18:33;;;;;;;18.70;9.30;;;-2.00;99.90;;;;;;4977867;28;20701;-81
2022/03/10 03:20:59;;;;;;;20.60;9.70;;;-2.00;99.90;;;;;;4977466;28;20194;-81
2022/03/10 03:23:25;;;;;;;17.73;9.97;;;-2.00;99.90;;;;;;4977578;28;20208;-81
2022/03/10 03:25:51;;;;;;;21.10;9.83;;;-2.10;99.90;;;;;;4978670;28;20196;-81
2022/03/10 03:28:17;;;;;;;18.50;9.50;;;-0.90;99.90;;;;;;4977971;28;20219;-81
2022/03/10 03:30:43;;;;;;;18.60;9.50;;;-0.70;99.90;;;;;;4977394;28;20507;-81
2022/03/10 03:33:09;;;;;;;18.77;9.33;;;-1.30;99.90;;;;;;4978443;28;20487;-80
2022/03/10 03:35:34;;;;;;;19.87;9.63;;;-2.00;99.90;;;;;;4977549;28;20200;-81
2022/03/10 03:38:00;;;;;;;19.50;10.07;;;-2.00;99.90;;;;;;4977740;28;20642;-81
2022/03/10 03:40:26;;;;;;;18.57;9.83;;;-2.00;99.90;;;;;;4977347;28;20271;-80
2022/03/10 03:42:52;;;;;;;18.67;9.80;;;-1.20;99.90;;;;;;4978598;28;20195;-81
2022/03/10 03:45:17;;;;;;;19.10;8.97;;;-1.20;99.90;;;;;;4978191;28;20196;-81
2022/03/10 03:47:43;;;;;;;21.63;9.63;;;-2.00;99.90;;;;;;4977539;28;20222;-80
2022/03/10 03:50:09;;;;;;;18.60;9.60;;;-2.00;99.90;;;;;;4977673;28;20180;-80
2022/03/10 03:52:35;;;;;;;19.33;9.77;;;-2.00;99.90;;;;;;4978306;28;20180;-81
2022/03/10 03:55:01;;;;;;;19.87;9.13;;;-2.00;99.90;;;;;;4977982;28;20462;-80
2022/03/10 03:57:27;;;;;;;21.83;8.57;;;-2.00;99.90;;;;;;4978878;28;20184;-81
2022/03/10 03:59:53;;;;;;;16.63;8.73;;;-2.00;99.90;;;;;;4979086;28;20840;-80
2022/03/10 04:02:18;;;;;;;18.67;9.43;;;-2.00;99.90;;;;;;4978370;28;20222;-80
2022/03/10 04:04:44;;;;;;;14.60;8.37;;;-0.40;99.90;;;;;;4979064;28;20188;-81
2022/03/10 04:07:10;;;;;;;15.90;8.93;;;-2.00;99.90;;;;;;4979312;28;20192;-81
2022/03/10 04:09:35;;;;;;;20.13;9.33;;;-2.10;99.90;;;;;;4978182;28;20181;-81
2022/03/10 04:12:02;;;;;;;17.57;9.17;;;-2.10;99.90;;;;;;4979601;28;20231;-81
2022/03/10 04:14:28;;;;;;;15.57;7.77;;;-2.10;99.90;;;;;;4977642;28;20200;-81
2022/03/10 04:16:54;;;;;;;15.97;8.87;;;-2.20;99.90;;;;;;4981331;28;20446;-81
2022/03/10 04:19:19;;;;;;;17.67;8.93;;;-2.20;99.90;;;;;;4983583;28;20649;-81
2022/03/10 04:21:45;;;;;;;18.30;9.60;;;-2.20;99.90;;;;;;4981702;28;20182;-81
2022/03/10 04:24:11;;;;;;;18.20;8.47;;;-2.20;99.90;;;;;;4983093;28;20208;-81
2022/03/10 04:26:38;;;;;;;15.87;8.87;;;-2.20;99.90;;;;;;4984619;28;20177;-81
2022/03/10 04:29:04;;;;;;;13.83;8.13;;;-2.20;99.90;;;;;;4981681;28;20172;-80
2022/03/10 04:31:29;;;;;;;14.77;8.50;;;-2.20;99.90;;;;;;4981710;28;20426;-81
2022/03/10 04:33:55;;;;;;;15.53;8.60;;;-2.30;99.90;;;;;;4981077;28;20188;-81
2022/03/10 04:36:21;;;;;;;15.97;8.63;;;-2.30;99.90;;;;;;4980054;28;20180;-81
2022/03/10 04:38:46;;;;;;;17.47;8.87;;;-2.30;99.90;;;;;;4981958;28;20209;-81
2022/03/10 04:41:12;;;;;;;17.13;9.10;;;-2.30;99.90;;;;;;4982372;28;20669;-81
2022/03/10 04:43:39;;;;;;;16.53;8.90;;;-2.30;99.90;;;;;;4981952;28;20199;-81
2022/03/10 04:46:04;;;;;;;18.80;10.30;;;-2.30;99.90;;;;;;4980495;28;20462;-81
2022/03/10 04:48:30;;;;;;;21.10;8.73;;;-2.30;99.90;;;;;;4982136;28;20408;-81
2022/03/10 04:50:56;;;;;;;20.23;8.93;;;-2.40;99.90;;;;;;4981404;28;20178;-81
2022/03/10 04:53:22;;;;;;;17.53;9.37;;;-2.50;99.90;;;;;;4980759;28;20984;-83
2022/03/10 04:55:48;;;;;;;15.07;8.70;;;-2.60;99.90;;;;;;4981721;28;20223;-81
2022/03/10 04:58:14;;;;;;;14.83;8.03;;;-2.10;99.90;;;;;;4980575;28;20185;-81
2022/03/10 05:00:40;;;;;;;19.63;8.63;;;-1.80;99.90;;;;;;4981190;28;20204;-81
2022/03/10 05:03:06;;;;;;;18.53;10.20;;;-2.70;99.90;;;;;;4978744;28;20510;-81
2022/03/10 05:05:32;;;;;;;13.97;8.63;;;-2.60;99.90;;;;;;4978099;28;20436;-81
2022/03/10 05:07:57;;;;;;;14.83;8.33;;;-2.60;99.90;;;;;;4979204;28;20180;-81
2022/03/10 05:10:23;;;;;;;16.27;9.40;;;-2.60;99.90;;;;;;4979263;28;20165;-81
2022/03/10 05:12:54;;;;;;;15.63;8.63;;;-2.60;99.90;;;;;;4977747;28;20184;-81
2022/03/10 05:15:23;;;;;;;14.57;8.47;;;-2.50;99.90;;;;;;4978226;28;20290;-81
2022/03/10 05:17:49;;;;;;;15.10;9.30;;;-2.50;99.90;;;;;;4979021;28;20419;-81
2022/03/10 05:20:15;;;;;;;18.83;8.73;;;-2.50;99.90;;;;;;4977702;28;20416;-81
2022/03/10 05:22:41;;;;;;;17.13;8.30;;;-2.50;99.90;;;;;;4978745;28;20455;-81
2022/03/10 05:25:07;;;;;;;15.90;8.63;;;-2.50;99.90;;;;;;4977927;28;20576;-81
2022/03/10 05:27:33;;;;;;;15.77;9.00;;;-2.60;99.90;;;;;;4977966;28;20408;-81
2022/03/10 05:29:59;;;;;;;19.80;10.33;;;-2.60;99.90;;;;;;4978715;28;20172;-81
2022/03/10 05:32:24;;;;;;;16.20;9.27;;;-2.60;99.90;;;;;;4976746;28;20207;-82
2022/03/10 05:34:50;;;;;;;16.03;8.77;;;-1.50;99.90;;;;;;4977375;28;20207;-81
2022/03/10 05:37:15;;;;;;;16.77;7.77;;;-2.50;99.90;;;;;;4977937;28;20685;-81
2022/03/10 05:39:41;;;;;;;17.87;8.57;;;-2.50;99.90;;;;;;4980292;28;20200;-81
2022/03/10 05:42:07;;;;;;;15.27;7.83;;;-2.50;99.90;;;;;;4978055;28;20211;-81
2022/03/10 05:44:32;;;;;;;13.67;7.33;;;-2.50;99.90;;;;;;4978285;28;20201;-81
2022/03/10 05:46:58;;;;;;;13.23;7.23;;;-2.40;99.90;;;;;;4979943;28;20171;-81
2022/03/10 05:49:24;;;;;;;14.63;8.30;;;-2.40;99.90;;;;;;4977872;28;20264;-81
2022/03/10 05:51:49;;;;;;;16.30;7.70;;;-1.20;99.90;;;;;;4978004;28;20665;-81
2022/03/10 05:54:15;;;;;;;16.93;7.90;;;-2.40;99.90;;;;;;4979773;28;20219;-81
2022/03/10 05:56:40;;;;;;;21.20;8.77;;;-2.40;99.90;;;;;;4980135;28;20160;-81
2022/03/10 05:59:06;;;;;;;16.67;7.83;;;-2.30;99.90;;;;;;4980099;28;20242;-81
2022/03/10 06:01:32;;;;;;;15.67;8.00;;;-2.30;99.90;;;;;;4978908;28;20176;-81
2022/03/10 06:03:58;;;;;;;15.40;7.60;;;-2.30;99.90;;;;;;4978326;28;20207;-80
2022/03/10 06:06:23;;;;;;;15.53;6.73;;;-2.20;99.90;;;;;;4981286;28;20191;-80
2022/03/10 06:08:50;;;;;;;19.63;8.03;;;-2.30;99.90;;;;;;4978908;28;20180;-81
2022/03/10 06:11:16;;;;;;;17.47;9.40;;;-2.30;99.90;;;;;;4979594;28;20179;-81
2022/03/10 06:13:42;;;;;;;19.17;8.67;;;-2.20;99.90;;;;;;4978855;28;20419;-81
2022/03/10 06:16:07;;;;;;;13.17;7.40;;;-1.10;99.90;;;;;;4980064;28;20212;-81
2022/03/10 06:18:33;;;;;;;19.57;8.43;;;-2.20;99.90;;;;;;4980652;28;20172;-81
2022/03/10 06:20:59;;;;;;;17.03;8.13;;;-2.20;99.90;;;;;;4979985;28;20180;-81
2022/03/10 06:23:25;;;;;;;14.60;7.13;;;-2.20;99.90;;;;;;4978686;28;20208;-81
2022/03/10 06:25:50;;;;;;;17.80;7.70;;;-2.20;99.90;;;;;;4978983;28;20667;-81
2022/03/10 06:28:16;;;;;;;13.27;6.93;;;-2.20;99.90;;;;;;4979730;28;20180;-81
2022/03/10 06:30:42;;;;;;;15.90;7.93;;;-2.10;99.90;;;;;;4979019;28;20227;-80
2022/03/10 06:33:07;;;;;;;16.97;8.47;;;-2.10;99.90;;;;;;4979541;28;20188;-81
2022/03/10 06:35:33;;;;;;;14.87;7.47;;;-2.00;99.90;;;;;;4978180;28;20208;-82
2022/03/10 06:37:58;;;;;;;14.93;7.60;;;-2.00;99.90;;;;;;4977037;28;20844;-80
2022/03/10 06:40:24;;;;;;;11.77;6.57;;;-2.00;99.90;;;;;;4979230;28;20235;-80
2022/03/10 06:42:50;;;;;;;13.43;7.80;;;-1.90;99.90;;;;;;4980312;28;20609;-81
2022/03/10 06:45:15;;;;;;;14.10;6.90;;;-1.80;99.90;;;;;;4980125;28;20670;-80
2022/03/10 06:47:41;;;;;;;14.33;7.07;;;-1.70;99.90;;;;;;4981352;28;20215;-81
2022/03/10 06:50:07;;;;;;;16.07;7.87;;;-0.80;99.90;;;;;;4982353;28;20677;-81
2022/03/10 06:52:33;;;;;;;13.37;6.60;;;-1.50;99.90;;;;;;4979446;28;20246;-80
2022/03/10 06:54:59;;;;;;;16.77;7.47;;;-1.00;99.90;;;;;;4977774;28;20989;-80
2022/03/10 06:57:25;;;;;;;12.30;6.93;;;0.10;99.90;;;;;;4981057;28;20638;-79
2022/03/10 06:59:50;;;;;;;13.43;7.20;;;-1.30;99.90;;;;;;4982489;28;20188;-80
2022/03/10 07:02:19;;;;;;;13.07;7.07;;;-1.20;99.90;;;;;;4978686;28;20199;-81
2022/03/10 07:04:45;;;;;;;14.67;7.30;;;-0.50;99.90;;;;;;4978482;28;20192;-81
2022/03/10 07:07:11;;;;;;;16.10;7.10;;;-1.00;99.90;;;;;;4978554;28;20407;-81
2022/03/10 07:09:37;;;;;;;16.10;6.33;;;-0.50;99.90;;;;;;4979629;28;20231;-81
2022/03/10 07:12:03;;;;;;;16.33;6.63;;;-0.80;99.90;;;;;;4979312;28;20451;-81
2022/03/10 07:14:28;;;;;;;18.67;7.50;;;-0.70;99.90;;;;;;4978609;28;20207;-81
2022/03/10 07:16:54;;;;;;;14.23;6.93;;;-0.70;99.90;;;;;;4979122;28;20184;-81
2022/03/10 07:19:20;;;;;;;12.13;6.07;;;-0.50;99.90;;;;;;4979204;28;20180;-81
2022/03/10 07:21:45;;;;;;;13.80;6.57;;;-0.30;99.90;;;;;;4979314;28;20504;-81
2022/03/10 07:24:12;;;;;;;19.23;7.07;;;-0.20;99.90;;;;;;4978117;28;20196;-82
2022/03/10 07:26:38;;;;;;;13.40;6.80;;;0.00;99.90;;;;;;4978341;28;20180;-81
2022/03/10 07:29:03;;;;;;;14.30;6.30;;;0.70;99.90;;;;;;4979859;28;20808;-82
2022/03/10 07:31:31;;;;;;;14.10;6.90;;;0.30;99.90;;;;;;4980614;28;20231;-81
2022/03/10 07:33:57;;;;;;;8.87;5.83;;;1.40;99.90;;;;;;4978077;28;20279;-82
2022/03/10 07:36:23;;;;;;;10.77;6.17;;;1.40;99.90;;;;;;4980656;28;20456;-82
2022/03/10 07:38:48;;;;;;;11.37;5.60;;;0.60;99.90;;;;;;4978075;28;20180;-80
2022/03/10 07:41:14;;;;;;;12.53;5.93;;;1.00;99.90;;;;;;4978615;28;20234;-80
2022/03/10 07:43:39;;;;;;;10.73;5.70;;;1.40;99.90;;;;;;4977702;28;20328;-81
2022/03/10 07:46:06;;;;;;;14.53;6.27;;;1.80;99.90;;;;;;4977611;28;20176;-81
2022/03/10 07:48:33;;;;;;;11.53;6.43;;;2.60;99.90;;;;;;4978056;28;20180;-80
2022/03/10 07:50:58;;;;;;;10.10;6.00;;;3.60;99.30;;;;;;4982194;28;20271;-81
2022/03/10 07:53:24;;;;;;;12.53;6.53;;;4.60;95.60;;;;;;4983174;28;20445;-81
2022/03/10 07:55:54;;;;;;;13.40;6.97;;;5.10;92.20;;;;;;4982782;28;20727;-81
2022/03/10 07:58:23;;;;;;;10.60;6.03;;;5.70;90.10;;;;;;4982152;28;20208;-82
2022/03/10 08:00:49;;;;;;;12.40;6.67;;;6.20;83.60;;;;;;4984231;28;20419;-81
2022/03/10 08:03:15;;;;;;;10.77;6.87;;;6.50;80.20;;;;;;4984611;28;20204;-81
2022/03/10 08:05:40;;;;;;;14.30;7.43;;;6.90;77.40;;;;;;4984608;28;20193;-81
2022/03/10 08:08:06;;;;;;;13.97;7.20;;;7.20;75.20;;;;;;4984068;28;20186;-82
2022/03/10 08:10:32;;;;;;;11.13;7.23;;;7.60;72.50;;;;;;4981665;28;20185;-82
2022/03/10 08:12:57;;;;;;;15.60;7.60;;;8.30;69.80;;;;;;4981005;28;20218;-82
2022/03/10 08:15:25;;;;;;;10.80;7.30;;;8.80;66.40;;;;;;4980420;28;20538;-82
2022/03/10 08:17:51;;;;;;;13.50;7.00;;;8.80;64.90;;;;;;4980137;28;20175;-82
2022/03/10 08:20:17;;;;;;;9.90;6.60;;;9.10;64.00;;;;;;4979363;28;20311;-82
2022/03/10 08:22:42;;;;;;;12.60;7.60;;;9.60;61.10;;;;;;4979334;28;20257;-82
2022/03/10 08:25:08;;;;;;;12.37;7.10;;;10.10;58.40;;;;;;4980269;28;20211;-83
2022/03/10 08:27:34;;;;;;;13.23;7.87;;;10.10;56.70;;;;;;4983590;28;20191;-82
2022/03/10 08:29:59;;;;;;;12.07;7.57;;;10.50;55.80;;;;;;4982059;28;20283;-82
2022/03/10 08:32:26;;;;;;;12.03;7.20;;;11.00;55.80;;;;;;4981726;28;20203;-82
2022/03/10 08:34:52;;;;;;;10.17;6.80;;;11.10;54.80;;;;;;4981943;28;20207;-82
2022/03/10 08:37:20;;;;;;;14.67;8.17;;;10.60;57.70;;;;;;4982973;28;20181;-82
2022/03/10 08:39:46;;;;;;;13.53;7.90;;;10.40;59.80;;;;;;4983572;28;20529;-82
2022/03/10 08:42:12;;;;;;;11.53;7.67;;;10.40;58.30;;;;;;4983601;28;20270;-82
2022/03/10 08:44:38;;;;;;;13.37;7.47;;;10.90;59.00;;;;;;4982761;28;20196;-82
2022/03/10 08:47:04;;;;;;;20.23;8.13;;;11.30;56.70;;;;;;4983403;28;20251;-82
2022/03/10 08:49:29;;;;;;;9.67;6.63;;;11.50;58.10;;;;;;4982311;28;20184;-82
2022/03/10 08:51:55;;;;;;;10.87;7.20;;;11.70;57.30;;;;;;4983021;28;20649;-83
2022/03/10 08:54:21;;;;;;;13.93;6.70;;;11.80;56.60;;;;;;4981353;28;20296;-82
2022/03/10 08:56:47;;;;;;;11.17;6.60;;;12.00;56.90;;;;;;4982336;28;20615;-83
2022/03/10 08:59:13;;;;;;;13.07;7.30;;;12.20;56.70;;;;;;4983060;28;20177;-79
2022/03/10 09:01:38;;;;;;;10.30;7.50;;;12.40;57.20;;;;;;4982249;28;20182;-82
2022/03/10 09:04:04;;;;;;;11.63;7.23;;;12.40;55.60;;;;;;4984338;28;20216;-84
2022/03/10 09:06:30;;;;;;;13.37;7.30;;;12.70;57.10;;;;;;4986741;28;20198;-84
2022/03/10 09:08:56;;;;;;;11.10;7.47;;;12.80;57.20;;;;;;4987010;28;20171;-84
2022/03/10 09:11:22;;;;;;;12.63;7.63;;;12.70;56.50;;;;;;4984259;28;20595;-86
2022/03/10 09:13:48;;;;;;;12.70;7.97;;;12.70;55.60;;;;;;4986365;28;20195;-84
2022/03/10 09:16:21;;;;;;;20.87;9.17;;;13.00;55.00;;;;;;4988813;28;20184;-85
2022/03/10 09:18:48;;;;;;;7.50;5.53;;;13.10;56.40;;;;;;4985489;28;20195;-87
2022/03/10 09:21:14;;;;;;;7.63;5.27;;;13.10;53.10;;;;;;4982906;28;20262;-85
2022/03/10 09:23:40;;;;;;;9.63;5.17;;;12.90;52.50;;;;;;4986600;28;20690;-83
2022/03/10 09:26:06;;;;;;;8.60;4.77;;;12.60;53.10;;;;;;4983623;28;20181;-81
2022/03/10 09:28:32;;;;;;;7.83;4.63;;;12.30;52.60;;;;;;4979918;28;20183;-81
2022/03/10 09:30:58;;;;;;;6.13;4.70;;;12.60;53.80;;;;;;4981716;28;20244;-82
2022/03/10 09:33:24;;;;;;;7.07;4.20;;;12.50;51.50;;;;;;4983796;28;20208;-81
2022/03/10 09:35:50;;;;;;;5.77;4.13;;;12.40;51.10;;;;;;4980159;28;20212;-83
2022/03/10 09:38:16;;;;;;;5.33;4.47;;;12.30;50.50;;;;;;4982598;28;20181;-81
2022/03/10 09:40:43;;;;;;;5.27;3.83;;;12.30;50.50;;;;;;4983620;28;20508;-82
2022/03/10 09:43:10;;;;;;;9.43;4.47;;;12.40;51.00;;;;;;4984465;28;20287;-84
2022/03/10 09:45:37;;;;;;;6.03;4.33;;;12.40;50.60;;;;;;4985071;28;20299;-84
2022/03/10 09:48:03;;;;;;;8.90;4.03;;;12.60;50.80;;;;;;4981988;28;20184;-83
2022/03/10 09:50:29;;;;;;;8.37;4.43;;;12.70;51.40;;;;;;4985241;28;20172;-83
2022/03/10 09:52:55;;;;;;;4.57;3.70;;;12.80;51.20;;;;;;4984494;28;20208;-83
2022/03/10 09:55:21;;;;;;;4.83;3.67;;;13.20;49.10;;;;;;4984416;28;20243;-83
2022/03/10 09:57:48;;;;;;;5.87;4.17;;;13.00;48.60;;;;;;4985157;28;20176;-83
2022/03/10 10:00:16;;;;;;;4.30;3.43;;;12.60;48.10;;;;;;4983536;28;20202;-83
2022/03/10 10:02:42;;;;;;;5.23;4.03;;;12.70;50.30;;;;;;4983659;28;20578;-82
2022/03/10 10:05:32;;;;;;;4.80;3.90;;;13.10;50.70;;;;;;4987533;28;20200;-84
2022/03/10 10:08:09;;;;;;;3.93;3.40;;;13.20;49.10;;;;;;4983240;28;20192;-83
2022/03/10 10:10:43;;;;;;;5.10;3.87;;;13.30;49.10;;;;;;4988245;28;20168;-81
2022/03/10 10:13:09;;;;;;;3.70;3.17;;;13.40;47.70;;;;;;4998099;28;20156;-82
2022/03/10 10:15:42;;;;;;;4.57;3.47;;;13.30;47.50;;;;;;4995051;28;20267;-84
2022/03/10 10:18:14;;;;;;;3.47;3.03;;;13.40;47.60;;;;;;4987123;28;20167;-84
2022/03/10 10:20:48;;;;;;;3.93;3.10;;;13.60;47.30;;;;;;4982823;28;20187;-82
2022/03/10 10:23:24;;;;;;;4.47;2.80;;;13.50;47.10;;;;;;4985556;28;20204;-84
2022/03/10 10:25:57;;;;;;;4.17;2.77;;;13.80;46.90;;;;;;4986392;28;20568;-84
2022/03/10 10:28:31;;;;;;;3.73;2.47;;;14.10;46.50;;;;;;4984432;28;20180;-85
2022/03/10 10:31:07;;;;;;;3.83;2.90;;;14.40;45.60;;;;;;4986252;28;20181;-83
2022/03/10 10:33:35;;;;;;;2.80;2.30;;;14.30;46.10;;;;;;4984560;28;20209;-83
2022/03/10 10:36:19;;;;;;;2.93;2.50;;;14.90;45.20;;;;;;4986662;28;20196;-85
2022/03/10 10:38:47;;;;;;;2.20;2.00;;;14.90;43.70;;;;;;4983349;28;20172;-83
2022/03/10 10:41:16;;;;;;;2.60;2.40;;;14.80;43.20;;;;;;4982313;28;20185;-81
2022/03/10 10:43:49;;;;;;;4.10;3.00;;;15.10;44.60;;;;;;4984827;28;20195;-86
2022/03/10 10:46:32;;;;;;;3.90;2.97;;;15.40;43.10;;;;;;4987903;28;20200;-84
2022/03/10 10:49:07;;;;;;;5.50;2.90;;;15.30;44.00;;;;;;4985301;28;20195;-83
2022/03/10 10:51:40;;;;;;;4.03;2.90;;;15.50;45.00;;;;;;4981788;28;20232;-80
2022/03/10 10:54:23;;;;;;;3.07;2.50;;;15.60;43.80;;;;;;4986642;28;20213;-82
2022/03/10 10:57:05;;;;;;;3.27;2.60;;;15.80;42.90;;;;;;4987188;28;20275;-80
2022/03/10 10:59:35;;;;;;;4.30;3.20;;;15.40;42.00;;;;;;4981317;28;20164;-81
2022/03/10 11:02:10;;;;;;;3.67;2.90;;;15.10;43.30;;;;;;4985952;28;20555;-81
2022/03/10 11:04:41;;;;;;;3.33;3.03;;;15.30;43.30;;;;;;4984705;28;20203;-81
2022/03/10 11:07:10;;;;;;;3.20;2.90;;;15.90;43.50;;;;;;4983353;28;20225;-82
2022/03/10 11:09:37;;;;;;;4.23;3.30;;;16.00;43.10;;;;;;4978360;28;20652;-80
2022/03/10 11:12:03;;;;;;;3.60;3.27;;;16.00;43.90;;;;;;4979369;28;20172;-79
2022/03/10 11:14:28;;;;;;;4.30;3.73;;;15.90;42.40;;;;;;4989889;28;20205;-81
2022/03/10 11:16:55;;;;;;;4.20;3.40;;;15.90;42.20;;;;;;4988636;28;20174;-78
2022/03/10 11:19:25;;;;;;;4.37;3.30;;;15.70;42.70;;;;;;4985617;28;20202;-80
2022/03/10 11:22:22;;;;;;;3.73;3.20;;;15.70;43.20;;;;;;4978615;28;20183;-79
2022/03/10 11:24:54;;;;;;;4.30;3.20;;;15.50;43.70;;;;;;4978449;28;20202;-79
2022/03/10 11:27:28;;;;;;;8.50;3.23;;;16.10;42.40;;;;;;4978997;28;20182;-80
2022/03/10 11:29:54;;;;;;;4.33;3.40;;;16.50;43.00;;;;;;4980154;28;20234;-80
2022/03/10 11:32:30;;;;;;;5.03;2.93;;;15.70;41.70;;;;;;4980665;28;20294;-80
2022/03/10 11:35:01;;;;;;;3.77;2.80;;;15.60;41.10;;;;;;4982263;28;20193;-80
2022/03/10 11:37:44;;;;;;;3.63;2.97;;;15.90;42.00;;;;;;4983776;28;20174;-80
2022/03/10 11:40:13;;;;;;;5.33;3.07;;;16.30;41.80;;;;;;4979964;28;20177;-78
2022/03/10 11:42:40;;;;;;;5.43;3.10;;;16.30;40.90;;;;;;4981836;28;20196;-80
2022/03/10 11:45:11;;;;;;;3.37;2.80;;;16.00;41.60;;;;;;4981303;28;20203;-80
2022/03/10 11:47:38;;;;;;;4.43;3.30;;;16.10;40.80;;;;;;4981020;28;20169;-79
2022/03/10 11:50:22;;;;;;;6.00;2.60;;;16.10;41.20;;;;;;4978560;28;20202;-80
2022/03/10 11:52:56;;;;;;;4.13;3.00;;;16.60;40.10;;;;;;4981052;28;20254;-78
2022/03/10 11:55:23;;;;;;;3.10;2.70;;;17.30;39.30;;;;;;4980103;28;20208;-81
2022/03/10 11:57:55;;;;;;;3.50;2.67;;;17.40;39.10;;;;;;4978475;28;20177;-80
2022/03/10 12:00:48;;;;;;;3.03;2.73;;;17.10;38.00;;;;;;4982632;28;20256;-78
2022/03/10 12:03:35;;;;;;;4.20;2.77;;;17.40;38.60;;;;;;4993656;28;20161;-80
2022/03/10 12:06:04;;;;;;;3.60;2.60;;;17.60;37.90;;;;;;4982646;28;20686;-81
2022/03/10 12:08:33;;;;;;;2.97;2.70;;;18.00;38.10;;;;;;4976989;28;20307;-80
2022/03/10 12:11:01;;;;;;;4.67;2.40;;;17.70;37.60;;;;;;4978002;28;20188;-80
2022/03/10 12:13:39;;;;;;;4.30;2.73;;;17.30;37.00;;;;;;4979218;28;20208;-80
2022/03/10 12:16:28;;;;;;;3.23;2.70;;;17.50;36.90;;;;;;4976988;28;20207;-80
2022/03/10 12:18:54;;;;;;;3.13;2.60;;;17.90;37.50;;;;;;4978340;28;20173;-80
2022/03/10 12:21:24;;;;;;;2.47;2.27;;;18.10;35.80;;;;;;4979613;28;20270;-82
2022/03/10 12:24:01;;;;;;;3.33;2.47;;;18.50;35.30;;;;;;4980261;28;20188;-81
2022/03/10 12:26:36;;;;;;;4.93;2.53;;;18.60;35.60;;;;;;4982495;28;20221;-82
2022/03/10 12:29:06;;;;;;;3.27;2.70;;;19.00;35.60;;;;;;4980564;28;20168;-82
2022/03/10 12:31:35;;;;;;;3.43;2.60;;;18.80;36.10;;;;;;4982032;28;20205;-81
2022/03/10 12:34:25;;;;;;;3.10;2.37;;;19.20;34.90;;;;;;4976443;28;20239;-78
2022/03/10 12:36:52;;;;;;;4.17;2.30;;;19.30;36.30;;;;;;4979479;28;20186;-80
2022/03/10 12:39:23;;;;;;;3.10;2.80;;;19.30;33.80;;;;;;4981725;28;20176;-79
2022/03/10 12:41:53;;;;;;;3.27;2.73;;;19.10;35.40;;;;;;4981357;28;20192;-79
2022/03/10 12:44:24;;;;;;;3.27;2.57;;;19.00;34.10;;;;;;4984000;28;20190;-81